Portada
METAR-TAF:

METAR-TAF

Aeropuertos :

Aeropuerto Internacional de Mehrabad

Teherán, Irán

latitud: 35-41N, longitud: 051-21E, altitud: 1204 m

Observación

El informe se hizo hace 33 minutos, a las 05:00 UTC
Viento 4 kt del suroeste
Temperatura 5°C
Humedad 81%
Presión 1016 hPa
Visibilidad: 3000 m
Escasas nubes a una altura de 3500 ft
neblina

METAR: OIII 210500Z 22004KT 3000 BR FEW035 05/02 Q1016 A3001 NOSIG

Hora: 09:03 (05:33 UTC)

Pronóstico

El informe se hizo hace 6 horas y 33 minutos, a las 23:00 UTC
Pronóstico válido del 21 a las 00 UTC al 22 a las 06 UTC
Viento 6 kt del oeste
Visibilidad: 7000 m
Escasas nubes a una altura de 2500 ft
Temporalmente
del 21 a las 00 UTC al 21 a las 03 UTC
Visibilidad: 3000 m
neblina

TAF: OIII 202300Z 2100/2206 27006KT 7000 FEW025 TEMPO 2100/2103 3000 BR

Observaciones y pronósticos meteorológicos de más de 4000 aeropuertos (mensajes METAR y TAF).

Los puntos amarillos y rojos representan las estaciones disponibles.

Ponga el ratón en el punto deseado para ver el nombre de la estación.

Haga clic para ver las observaciones y los pronósticos meteorológicos.

Para cambiar el mapa : haga clic en los botones verdes con una cruz de color negro para hacer un zoom, en el botón verde con un guión para alejar o en las flechas verdes para mapas adyacentes.


METAR-TAF: